Time;durP1;ratioP1;P1;durP2;ratioP2;P2;SDS_P1;SDS_P2;PMS_P1;PMS_P2;Temp;Humidity;BMP_temperature;BMP_pressure;BME280_temperature;BME280_humidity;BME280_pressure;Samples;Min_cycle;Max_cycle;Signal;HPM_P1;HPM_P2
2023/08/13 00:02:20;;;;;;;13.50;7.97;;;14.60;99.90;;;;;;5091377;28;20256;-89
2023/08/13 00:04:46;;;;;;;15.90;8.63;;;14.60;99.90;;;;;;5060516;28;20248;-90
2023/08/13 00:07:11;;;;;;;11.07;6.85;;;14.60;99.90;;;;;;5027658;28;20639;-90
2023/08/13 00:09:40;;;;;;;12.38;7.13;;;14.60;99.90;;;;;;5027363;28;20237;-90
2023/08/13 00:12:06;;;;;;;13.30;8.27;;;14.50;99.90;;;;;;5061620;28;20206;-89
2023/08/13 00:14:31;;;;;;;17.13;7.93;;;14.50;99.90;;;;;;5035854;28;20235;-89
2023/08/13 00:16:57;;;;;;;13.73;8.38;;;14.40;99.90;;;;;;5077109;28;20210;-90
2023/08/13 00:19:23;;;;;;;13.48;8.18;;;14.40;99.90;;;;;;5042226;28;20530;-89
2023/08/13 00:21:48;;;;;;;13.50;8.07;;;14.40;99.90;;;;;;5081662;28;20178;-89
2023/08/13 00:24:14;;;;;;;14.50;8.30;;;14.40;99.90;;;;;;5061544;28;20188;-90
2023/08/13 00:26:40;;;;;;;14.25;8.65;;;14.40;99.90;;;;;;5060459;28;20526;-91
2023/08/13 00:29:08;;;;;;;12.88;8.32;;;14.40;99.90;;;;;;5074995;28;20207;-90
2023/08/13 00:31:33;;;;;;;13.20;8.45;;;14.30;99.90;;;;;;5074861;28;20229;-91
2023/08/13 00:33:59;;;;;;;14.52;8.43;;;14.30;99.90;;;;;;5045265;28;20254;-91
2023/08/13 00:36:25;;;;;;;13.70;8.05;;;14.30;99.90;;;;;;5099637;28;20183;-91
2023/08/13 00:38:50;;;;;;;13.07;7.47;;;14.30;99.90;;;;;;5079313;28;20247;-90
2023/08/13 00:41:16;;;;;;;14.40;8.23;;;14.30;99.90;;;;;;5057502;28;20185;-91
2023/08/13 00:43:42;;;;;;;16.17;8.38;;;14.30;99.90;;;;;;5057943;28;20243;-90
2023/08/13 00:46:08;;;;;;;11.93;8.00;;;14.30;99.90;;;;;;5061084;28;20179;-90
2023/08/13 00:48:38;;;;;;;9.93;7.38;;;14.30;99.90;;;;;;5079520;28;20158;-91
2023/08/13 00:51:04;;;;;;;18.08;8.02;;;14.30;99.90;;;;;;5082083;28;20183;-90
2023/08/13 00:53:30;;;;;;;12.63;8.05;;;14.20;99.90;;;;;;5064861;28;20179;-90
2023/08/13 00:55:57;;;;;;;10.40;7.28;;;14.20;99.90;;;;;;5054254;28;20184;-90
2023/08/13 00:58:23;;;;;;;16.75;8.00;;;14.20;99.90;;;;;;5043359;28;20183;-90
2023/08/13 01:00:49;;;;;;;11.68;7.82;;;14.20;99.90;;;;;;5076283;28;20207;-91
2023/08/13 01:03:14;;;;;;;13.70;8.02;;;14.10;99.90;;;;;;5076730;28;20577;-90
2023/08/13 01:06:04;;;;;;;10.63;7.15;;;14.10;99.90;;;;;;5042267;28;20538;-90
2023/08/13 01:08:58;;;;;;;14.80;7.78;;;14.10;99.90;;;;;;5076716;28;20163;-91
2023/08/13 01:11:36;;;;;;;13.57;6.68;;;14.00;99.90;;;;;;5045407;28;20199;-90
2023/08/13 01:14:12;;;;;;;10.75;6.93;;;14.10;99.90;;;;;;5057969;28;20312;-90
2023/08/13 01:16:42;;;;;;;18.17;7.22;;;14.00;99.90;;;;;;5058763;28;20202;-90
2023/08/13 01:19:12;;;;;;;10.32;7.15;;;14.00;99.90;;;;;;5058395;28;20179;-90
2023/08/13 01:21:38;;;;;;;19.42;7.63;;;14.00;99.90;;;;;;5058479;28;20259;-91
2023/08/13 01:24:04;;;;;;;9.75;6.10;;;14.00;99.90;;;;;;5041754;28;20614;-91
2023/08/13 01:26:40;;;;;;;13.05;7.72;;;14.00;99.90;;;;;;5058570;28;20216;-91
2023/08/13 01:29:17;;;;;;;10.95;6.40;;;14.00;99.90;;;;;;5058296;28;20506;-91
2023/08/13 01:31:46;;;;;;;12.32;7.03;;;14.00;99.90;;;;;;5076103;28;20213;-90
2023/08/13 01:34:13;;;;;;;9.73;6.68;;;14.00;99.90;;;;;;5077271;28;20202;-89
2023/08/13 01:36:40;;;;;;;13.38;7.47;;;14.00;99.90;;;;;;5100249;28;20247;-90
2023/08/13 01:39:06;;;;;;;9.40;6.85;;;13.90;99.90;;;;;;5053375;28;20193;-91
2023/08/13 01:41:42;;;;;;;11.95;6.80;;;13.90;99.90;;;;;;5059726;28;20171;-91
2023/08/13 01:44:07;;;;;;;15.35;8.05;;;13.90;99.90;;;;;;5080979;28;20163;-91
2023/08/13 01:46:33;;;;;;;16.20;8.05;;;13.90;99.90;;;;;;5043676;28;20179;-91
2023/08/13 01:48:58;;;;;;;10.55;6.88;;;13.80;99.90;;;;;;5042246;28;20701;-90
2023/08/13 01:51:24;;;;;;;13.82;7.30;;;13.90;99.90;;;;;;5061211;28;20171;-89
2023/08/13 01:53:50;;;;;;;12.85;7.03;;;13.90;99.90;;;;;;5082923;28;20155;-90
2023/08/13 01:56:15;;;;;;;10.80;7.28;;;13.90;99.90;;;;;;5057993;28;20336;-90
2023/08/13 01:58:41;;;;;;;13.45;7.25;;;13.90;99.90;;;;;;5057305;28;20216;-90
2023/08/13 02:01:07;;;;;;;10.68;7.20;;;13.80;99.90;;;;;;5058230;28;20205;-90
2023/08/13 02:03:32;;;;;;;15.35;7.75;;;13.80;99.90;;;;;;5065626;28;20600;-89
2023/08/13 02:05:58;;;;;;;11.13;7.93;;;13.90;99.90;;;;;;5032025;28;20552;-90
2023/08/13 02:08:24;;;;;;;13.65;7.35;;;13.90;99.90;;;;;;5068249;28;20206;-90
2023/08/13 02:10:49;;;;;;;8.93;6.68;;;13.80;99.90;;;;;;5062856;28;20273;-89
2023/08/13 02:13:15;;;;;;;14.10;7.65;;;13.80;99.90;;;;;;5065990;28;20533;-90
2023/08/13 02:15:40;;;;;;;11.80;6.93;;;13.80;99.90;;;;;;5057372;28;20573;-90
2023/08/13 02:18:06;;;;;;;12.95;7.20;;;13.70;99.90;;;;;;5024181;28;20182;-89
2023/08/13 02:20:32;;;;;;;11.70;6.30;;;13.70;99.90;;;;;;5024215;28;20191;-90
2023/08/13 02:22:57;;;;;;;11.93;6.50;;;13.70;99.90;;;;;;5057745;28;20615;-90
2023/08/13 02:25:23;;;;;;;12.77;6.90;;;13.70;99.90;;;;;;5042881;28;20582;-90
2023/08/13 02:27:49;;;;;;;11.68;7.13;;;13.70;99.90;;;;;;5081562;28;20197;-91
2023/08/13 02:30:15;;;;;;;11.30;6.78;;;13.60;99.90;;;;;;5081754;28;20206;-90
2023/08/13 02:32:41;;;;;;;10.95;7.13;;;13.60;99.90;;;;;;5060484;28;20543;-90
2023/08/13 02:35:07;;;;;;;12.27;7.07;;;13.60;99.90;;;;;;5043047;28;20176;-90
2023/08/13 02:37:32;;;;;;;11.70;6.95;;;13.60;99.90;;;;;;5058855;28;20228;-90
2023/08/13 02:39:59;;;;;;;13.10;6.47;;;13.60;99.90;;;;;;5067417;28;20179;-91
2023/08/13 02:42:24;;;;;;;11.80;6.72;;;13.50;99.90;;;;;;5073202;28;20175;-91
2023/08/13 02:44:50;;;;;;;19.92;8.20;;;13.50;99.90;;;;;;5049709;28;20219;-91
2023/08/13 02:47:16;;;;;;;12.05;7.10;;;13.50;99.90;;;;;;5058268;28;20187;-90
2023/08/13 02:49:41;;;;;;;12.35;7.55;;;13.40;99.90;;;;;;5056822;28;20203;-91
2023/08/13 02:52:07;;;;;;;11.05;7.78;;;13.40;99.90;;;;;;5023226;28;20539;-91
2023/08/13 02:54:32;;;;;;;11.23;6.25;;;13.40;99.90;;;;;;5056394;28;20175;-91
2023/08/13 02:56:59;;;;;;;17.63;6.95;;;13.40;99.90;;;;;;5039649;28;20194;-91
2023/08/13 02:59:25;;;;;;;8.27;6.80;;;13.40;99.90;;;;;;5074667;28;20182;-89
2023/08/13 03:01:51;;;;;;;11.13;6.75;;;13.40;99.90;;;;;;5061770;28;20183;-90
2023/08/13 03:04:16;;;;;;;12.38;7.10;;;13.40;99.90;;;;;;5049704;28;20543;-90
2023/08/13 03:06:42;;;;;;;17.33;7.32;;;13.40;99.90;;;;;;5047477;28;20659;-89
2023/08/13 03:09:19;;;;;;;12.10;6.60;;;13.30;99.90;;;;;;5027209;28;20182;-89
2023/08/13 03:11:44;;;;;;;10.90;6.20;;;13.30;99.90;;;;;;5058673;28;20256;-89
2023/08/13 03:14:10;;;;;;;10.82;6.70;;;13.20;99.90;;;;;;5075420;28;20175;-88
2023/08/13 03:16:36;;;;;;;8.55;6.03;;;13.20;99.90;;;;;;5040763;28;20246;-89
2023/08/13 03:19:02;;;;;;;10.98;6.55;;;13.20;99.90;;;;;;5023174;28;20278;-90
2023/08/13 03:21:27;;;;;;;8.25;6.10;;;13.20;99.90;;;;;;5056335;28;20171;-90
2023/08/13 03:23:53;;;;;;;11.77;7.20;;;13.20;99.90;;;;;;5039678;28;20179;-89
2023/08/13 03:26:18;;;;;;;11.00;6.40;;;13.30;99.90;;;;;;5050609;28;20193;-89
2023/08/13 03:28:44;;;;;;;13.45;7.25;;;13.30;99.90;;;;;;5078550;28;20175;-90
2023/08/13 03:31:10;;;;;;;12.85;6.30;;;13.40;99.90;;;;;;5060088;28;20234;-88
2023/08/13 03:33:35;;;;;;;13.50;7.72;;;13.40;99.90;;;;;;5052391;28;20552;-89
2023/08/13 03:36:01;;;;;;;14.98;7.45;;;13.40;99.90;;;;;;5083855;28;20656;-88
2023/08/13 03:38:27;;;;;;;8.82;6.22;;;13.40;99.90;;;;;;5056069;28;20167;-89
2023/08/13 03:40:55;;;;;;;9.65;6.55;;;13.30;99.90;;;;;;5059887;28;20186;-89
2023/08/13 03:43:20;;;;;;;13.88;6.15;;;13.40;99.90;;;;;;5039273;28;20183;-88
2023/08/13 03:45:46;;;;;;;11.35;5.93;;;13.40;99.90;;;;;;5073915;28;20182;-89
2023/08/13 03:48:12;;;;;;;9.32;5.95;;;13.40;99.90;;;;;;5073421;28;20179;-88
2023/08/13 03:50:41;;;;;;;12.52;5.63;;;13.50;99.90;;;;;;5074388;28;20211;-89
2023/08/13 03:53:10;;;;;;;11.70;6.03;;;13.50;99.90;;;;;;5038349;28;20174;-92
2023/08/13 03:55:37;;;;;;;8.63;6.25;;;13.60;99.90;;;;;;5063851;28;20242;-88
2023/08/13 03:58:03;;;;;;;8.52;6.10;;;13.60;99.90;;;;;;5067756;28;20175;-89
2023/08/13 04:00:30;;;;;;;7.57;5.60;;;13.70;99.90;;;;;;5055643;28;20678;-88
2023/08/13 04:02:55;;;;;;;9.00;6.10;;;13.70;99.90;;;;;;5055882;28;20187;-89
2023/08/13 04:05:21;;;;;;;11.32;6.88;;;13.80;99.90;;;;;;5046838;28;20183;-88
2023/08/13 04:07:47;;;;;;;8.52;5.55;;;13.80;99.90;;;;;;5069671;28;20207;-89
2023/08/13 04:10:13;;;;;;;9.52;5.88;;;13.90;99.90;;;;;;5075957;28;20207;-90
2023/08/13 04:12:38;;;;;;;9.55;5.63;;;13.90;99.90;;;;;;5055382;28;20260;-89
2023/08/13 04:15:04;;;;;;;8.43;5.68;;;14.00;99.90;;;;;;5073341;28;20233;-90
2023/08/13 04:17:30;;;;;;;8.98;5.30;;;14.00;99.90;;;;;;5038606;28;20179;-90
2023/08/13 04:19:56;;;;;;;11.65;5.50;;;14.10;99.90;;;;;;5038707;28;20236;-89
2023/08/13 04:22:21;;;;;;;7.20;4.82;;;14.20;99.90;;;;;;5073490;28;20175;-89
2023/08/13 04:24:50;;;;;;;7.10;5.32;;;14.30;99.90;;;;;;5022201;28;20205;-89
2023/08/13 04:27:17;;;;;;;7.70;4.65;;;14.40;99.90;;;;;;5039170;28;20179;-90
2023/08/13 04:29:43;;;;;;;6.60;4.45;;;14.50;99.90;;;;;;5022351;28;20294;-89
2023/08/13 04:32:09;;;;;;;6.28;4.93;;;14.60;99.90;;;;;;5038706;28;20270;-89
2023/08/13 04:34:34;;;;;;;10.48;6.10;;;14.70;99.90;;;;;;5055054;28;20183;-89
2023/08/13 04:37:00;;;;;;;8.52;5.30;;;14.80;99.90;;;;;;5055418;28;20220;-89
2023/08/13 04:39:26;;;;;;;6.28;5.03;;;14.90;99.90;;;;;;5038696;28;20624;-89
2023/08/13 04:41:53;;;;;;;7.00;5.03;;;15.10;99.90;;;;;;5055113;28;20202;-89
2023/08/13 04:44:18;;;;;;;19.70;10.82;;;15.20;99.90;;;;;;5073440;28;20180;-90
2023/08/13 04:46:44;;;;;;;13.07;7.30;;;15.20;99.90;;;;;;5022317;28;20182;-89
2023/08/13 04:49:10;;;;;;;7.05;5.03;;;15.30;99.90;;;;;;5042105;28;20674;-90
2023/08/13 04:51:35;;;;;;;7.88;4.95;;;15.40;99.90;;;;;;5042276;28;20181;-90
2023/08/13 04:54:01;;;;;;;6.45;4.60;;;15.60;99.90;;;;;;5041989;28;20179;-90
2023/08/13 04:56:26;;;;;;;10.57;5.00;;;15.70;99.90;;;;;;5058655;28;20171;-89
2023/08/13 04:58:52;;;;;;;8.40;4.85;;;15.70;99.90;;;;;;5058409;28;20175;-90
2023/08/13 05:01:18;;;;;;;10.07;4.57;;;15.90;99.90;;;;;;5058345;28;20175;-90
2023/08/13 05:03:44;;;;;;;10.63;4.88;;;16.00;99.90;;;;;;5076068;28;20179;-89
2023/08/13 05:06:10;;;;;;;5.15;4.50;;;16.10;99.90;;;;;;5059310;28;20163;-88
2023/08/13 05:08:36;;;;;;;8.88;5.35;;;16.30;99.90;;;;;;5042989;28;20187;-92
2023/08/13 05:11:01;;;;;;;9.50;6.03;;;16.40;99.90;;;;;;5059248;28;20199;-91
2023/08/13 05:13:34;;;;;;;6.45;4.63;;;16.50;99.90;;;;;;5059699;28;20183;-92
2023/08/13 05:16:00;;;;;;;6.50;4.68;;;16.70;99.90;;;;;;5041006;28;20311;-90
2023/08/13 05:18:25;;;;;;;7.43;4.70;;;16.80;99.90;;;;;;5040765;28;20213;-92
2023/08/13 05:20:51;;;;;;;9.77;4.95;;;17.00;99.90;;;;;;5040565;28;20314;-93
2023/08/13 05:23:17;;;;;;;7.50;5.28;;;17.30;99.90;;;;;;5041607;28;20180;-93
2023/08/13 05:25:43;;;;;;;6.78;4.50;;;17.50;99.90;;;;;;5039871;28;20186;-93
2023/08/13 05:28:09;;;;;;;6.15;4.75;;;17.50;99.90;;;;;;5040730;28;20180;-93
2023/08/13 05:30:41;;;;;;;7.28;4.68;;;17.70;99.90;;;;;;5040895;28;20207;-93
2023/08/13 05:33:06;;;;;;;6.53;4.70;;;18.10;99.90;;;;;;5040014;28;20182;-91
2023/08/13 05:35:33;;;;;;;8.10;5.30;;;17.90;99.90;;;;;;5040025;28;20576;-91
2023/08/13 05:37:58;;;;;;;10.93;5.30;;;18.10;99.90;;;;;;5059379;28;20164;-90
2023/08/13 05:40:25;;;;;;;8.98;5.00;;;18.40;99.90;;;;;;5027055;28;20245;-92
2023/08/13 05:42:51;;;;;;;8.63;5.20;;;18.30;99.90;;;;;;5031657;28;20168;-91
2023/08/13 05:45:17;;;;;;;7.05;5.13;;;17.80;99.90;;;;;;5046116;28;20582;-92
2023/08/13 05:47:43;;;;;;;7.90;5.10;;;19.00;99.90;;;;;;5032962;28;20210;-93
2023/08/13 05:50:09;;;;;;;7.47;5.07;;;16.60;99.90;;;;;;5052304;28;20219;-93
2023/08/13 05:52:34;;;;;;;7.03;4.57;;;18.80;99.90;;;;;;5031058;28;20660;-90
2023/08/13 05:55:00;;;;;;;7.97;4.78;;;19.00;99.90;;;;;;5061435;28;20655;-92
2023/08/13 05:57:26;;;;;;;8.02;5.13;;;19.20;99.90;;;;;;5051670;28;20172;-91
2023/08/13 05:59:52;;;;;;;6.53;4.75;;;19.30;99.90;;;;;;5051342;28;20214;-92
2023/08/13 06:02:18;;;;;;;7.93;4.88;;;19.40;99.90;;;;;;5052907;28;20206;-91
2023/08/13 06:04:43;;;;;;;6.03;4.63;;;19.70;99.90;;;;;;5050490;28;20204;-91
2023/08/13 06:07:09;;;;;;;5.28;4.40;;;19.80;99.90;;;;;;5062704;28;20184;-93
2023/08/13 06:09:35;;;;;;;9.27;4.57;;;19.90;99.90;;;;;;5047696;28;20207;-93
2023/08/13 06:12:00;;;;;;;6.80;4.50;;;20.10;99.90;;;;;;5036314;28;20176;-91
2023/08/13 06:14:26;;;;;;;6.38;4.40;;;20.20;99.90;;;;;;5064532;28;20239;-89
2023/08/13 06:16:53;;;;;;;5.45;4.13;;;20.30;99.90;;;;;;5064108;28;20231;-88
2023/08/13 06:19:18;;;;;;;9.38;4.60;;;20.30;99.90;;;;;;5096272;28;20280;-90
2023/08/13 06:21:44;;;;;;;5.93;4.82;;;20.40;99.90;;;;;;5081902;28;20197;-91
2023/08/13 06:24:10;;;;;;;6.57;4.57;;;20.50;99.90;;;;;;5056319;28;20179;-91
2023/08/13 06:26:36;;;;;;;6.90;4.65;;;20.40;99.90;;;;;;5056694;28;20176;-90
2023/08/13 06:29:02;;;;;;;6.40;4.30;;;20.50;99.90;;;;;;5023099;28;20270;-90
2023/08/13 06:31:28;;;;;;;7.35;5.22;;;20.60;99.90;;;;;;5056412;28;20258;-89
2023/08/13 06:33:54;;;;;;;6.93;4.45;;;20.70;99.90;;;;;;5040395;28;20184;-90
2023/08/13 06:36:20;;;;;;;6.25;4.70;;;20.90;99.90;;;;;;5056535;28;20266;-91
2023/08/13 06:38:46;;;;;;;9.13;4.35;;;20.90;99.90;;;;;;5057379;28;20568;-91
2023/08/13 06:41:11;;;;;;;13.85;7.03;;;20.90;99.90;;;;;;5055615;28;20191;-91
2023/08/13 06:43:37;;;;;;;7.10;4.38;;;20.90;99.90;;;;;;5055705;28;20198;-91
2023/08/13 06:46:03;;;;;;;6.70;4.50;;;20.80;99.90;;;;;;5023011;28;20217;-92
2023/08/13 06:48:33;;;;;;;5.80;4.35;;;20.80;99.90;;;;;;5056852;28;20240;-92
2023/08/13 06:50:59;;;;;;;6.25;4.60;;;20.80;99.90;;;;;;5039209;28;20303;-91
2023/08/13 06:53:25;;;;;;;5.80;4.82;;;20.80;99.90;;;;;;5073227;28;20206;-94
2023/08/13 06:55:51;;;;;;;6.38;5.20;;;21.00;99.90;;;;;;5054217;28;20175;-90
2023/08/13 06:58:17;;;;;;;8.02;5.03;;;21.10;99.90;;;;;;5054822;28;20229;-91
2023/08/13 07:00:43;;;;;;;6.90;4.90;;;21.20;99.90;;;;;;5037643;28;20190;-92
2023/08/13 07:03:09;;;;;;;6.47;5.10;;;21.30;99.90;;;;;;5072682;28;20297;-91
2023/08/13 07:05:42;;;;;;;6.25;5.05;;;21.50;99.90;;;;;;5072816;28;20272;-92
2023/08/13 07:08:09;;;;;;;8.85;4.68;;;21.70;99.90;;;;;;5055857;28;20183;-92
2023/08/13 07:10:35;;;;;;;10.20;5.38;;;21.80;99.90;;;;;;5055104;28;20211;-90
2023/08/13 07:13:00;;;;;;;5.72;4.70;;;21.90;99.90;;;;;;5055028;28;20647;-91
2023/08/13 07:15:26;;;;;;;8.50;6.00;;;21.90;99.90;;;;;;5054668;28;20238;-92
2023/08/13 07:17:52;;;;;;;6.47;5.00;;;22.00;99.90;;;;;;5056001;28;20179;-92
2023/08/13 07:20:18;;;;;;;6.05;4.63;;;22.00;99.90;;;;;;5053593;28;20181;-90
2023/08/13 07:22:45;;;;;;;6.93;4.78;;;22.20;99.90;;;;;;5052829;28;20681;-92
2023/08/13 07:25:12;;;;;;;4.95;4.30;;;22.40;99.90;;;;;;5054067;28;20188;-91
2023/08/13 07:27:39;;;;;;;6.18;4.78;;;22.50;99.90;;;;;;5071942;28;20301;-90
2023/08/13 07:30:09;;;;;;;6.15;4.40;;;22.80;99.90;;;;;;5036140;28;20211;-88
2023/08/13 07:32:40;;;;;;;5.05;4.50;;;23.00;99.90;;;;;;5036317;28;20647;-88
2023/08/13 07:35:06;;;;;;;7.40;4.40;;;23.20;99.90;;;;;;5038769;28;20187;-95
2023/08/13 07:37:32;;;;;;;5.88;4.38;;;23.30;99.90;;;;;;5038771;28;20743;-90
2023/08/13 07:39:58;;;;;;;7.18;4.05;;;23.30;99.90;;;;;;5054416;28;20203;-89
2023/08/13 07:42:24;;;;;;;4.63;4.20;;;23.40;99.90;;;;;;5053853;28;20179;-86
2023/08/13 07:44:50;;;;;;;4.75;4.25;;;23.50;99.90;;;;;;5053801;28;20219;-85
2023/08/13 07:47:16;;;;;;;5.60;4.65;;;23.60;99.90;;;;;;5037232;28;20186;-86
2023/08/13 07:49:42;;;;;;;7.00;4.25;;;23.80;99.90;;;;;;5021437;28;20234;-86
2023/08/13 07:52:08;;;;;;;4.60;4.07;;;24.00;99.90;;;;;;5037686;28;20541;-86
2023/08/13 07:54:36;;;;;;;6.95;4.07;;;24.20;99.90;;;;;;5054690;28;20325;-86
2023/08/13 07:57:03;;;;;;;4.85;4.00;;;24.30;99.90;;;;;;5081751;28;20171;-86
2023/08/13 07:59:29;;;;;;;16.83;3.95;;;24.30;99.90;;;;;;5092763;28;20255;-85
2023/08/13 08:01:55;;;;;;;5.22;4.05;;;24.40;99.90;;;;;;5049256;28;20191;-89
2023/08/13 08:04:20;;;;;;;5.25;3.72;;;24.40;99.90;;;;;;5055041;28;20175;-85
2023/08/13 08:06:46;;;;;;;4.00;3.45;;;24.50;99.90;;;;;;5054049;28;20187;-86
2023/08/13 08:09:12;;;;;;;3.78;3.15;;;24.70;99.90;;;;;;5037614;28;20179;-85
2023/08/13 08:11:38;;;;;;;3.55;3.17;;;24.70;99.90;;;;;;5053813;28;20182;-86
2023/08/13 08:14:04;;;;;;;5.22;3.33;;;24.90;99.90;;;;;;5053316;28;20663;-84
2023/08/13 08:16:30;;;;;;;5.93;3.17;;;25.00;99.90;;;;;;5037450;28;20163;-86
2023/08/13 08:18:56;;;;;;;6.55;3.83;;;25.00;99.90;;;;;;5037520;28;20191;-84
2023/08/13 08:21:21;;;;;;;4.18;3.13;;;25.20;99.90;;;;;;5053737;28;20202;-85
2023/08/13 08:23:47;;;;;;;4.50;3.67;;;25.40;99.80;;;;;;5041999;28;20191;-85
2023/08/13 08:26:12;;;;;;;6.25;3.17;;;25.40;99.20;;;;;;5076936;28;20175;-85
2023/08/13 08:28:38;;;;;;;4.00;3.22;;;25.50;97.50;;;;;;5075282;28;20186;-87
2023/08/13 08:31:04;;;;;;;4.80;2.80;;;25.50;96.50;;;;;;5058144;28;20659;-86
2023/08/13 08:33:29;;;;;;;3.83;2.88;;;25.50;96.30;;;;;;5041239;28;20252;-86
2023/08/13 08:35:55;;;;;;;3.33;3.03;;;25.70;96.60;;;;;;5024994;28;20562;-86
2023/08/13 08:38:21;;;;;;;3.97;2.97;;;25.80;96.30;;;;;;5058158;28;20532;-85
2023/08/13 08:40:48;;;;;;;6.35;4.35;;;25.90;95.50;;;;;;5058087;28;20186;-86
2023/08/13 08:43:16;;;;;;;4.80;3.08;;;26.00;95.70;;;;;;5026524;28;20180;-85
2023/08/13 08:45:43;;;;;;;3.17;2.70;;;26.10;93.80;;;;;;5041937;28;20183;-86
2023/08/13 08:48:11;;;;;;;11.10;2.92;;;26.20;92.70;;;;;;5075511;28;20175;-85
2023/08/13 08:50:37;;;;;;;3.83;2.90;;;26.30;93.10;;;;;;5040877;28;20214;-86
2023/08/13 08:53:03;;;;;;;3.78;2.75;;;26.40;92.60;;;;;;5075272;28;20252;-87
2023/08/13 08:55:30;;;;;;;5.80;2.70;;;26.40;90.60;;;;;;5075697;28;20186;-87
2023/08/13 08:57:55;;;;;;;2.47;2.28;;;26.50;90.40;;;;;;5040954;28;20266;-86
2023/08/13 09:00:21;;;;;;;6.32;3.10;;;26.60;89.40;;;;;;5024235;28;20270;-87
2023/08/13 09:02:47;;;;;;;2.90;2.53;;;26.70;89.10;;;;;;5057273;28;20179;-86
2023/08/13 09:05:14;;;;;;;3.42;2.47;;;26.80;85.00;;;;;;5057284;28;20179;-85
2023/08/13 09:07:42;;;;;;;3.67;2.03;;;26.80;84.30;;;;;;5074944;28;20175;-87
2023/08/13 09:10:08;;;;;;;4.47;2.92;;;26.70;82.50;;;;;;5056839;28;20219;-87
2023/08/13 09:12:35;;;;;;;15.50;7.80;;;26.60;87.20;;;;;;5074950;28;20258;-87
2023/08/13 09:15:09;;;;;;;5.18;2.47;;;26.60;89.70;;;;;;5040331;28;20281;-87
2023/08/13 09:17:36;;;;;;;3.67;2.47;;;26.70;81.20;;;;;;5056713;28;20262;-87
2023/08/13 09:20:14;;;;;;;2.25;1.95;;;26.90;81.40;;;;;;5056912;28;20179;-87
2023/08/13 09:22:44;;;;;;;2.13;1.88;;;27.10;81.80;;;;;;5056967;28;20214;-86
2023/08/13 09:25:10;;;;;;;4.40;2.65;;;27.20;80.20;;;;;;5056706;28;20364;-86
2023/08/13 09:27:35;;;;;;;2.65;2.40;;;27.40;79.60;;;;;;5040684;28;20656;-87
2023/08/13 09:30:01;;;;;;;2.22;1.92;;;27.40;77.30;;;;;;5073887;28;20576;-87
2023/08/13 09:32:28;;;;;;;5.63;1.98;;;27.50;74.10;;;;;;5023589;28;20189;-85
2023/08/13 09:34:54;;;;;;;2.25;2.05;;;27.50;75.10;;;;;;5056711;28;20183;-86
2023/08/13 09:37:24;;;;;;;2.47;2.13;;;27.50;73.20;;;;;;5055727;28;20190;-86
2023/08/13 09:39:49;;;;;;;1.75;1.63;;;27.60;76.00;;;;;;5056350;28;20236;-90
2023/08/13 09:42:18;;;;;;;3.08;2.00;;;27.80;72.90;;;;;;5039821;28;20175;-87
2023/08/13 09:44:44;;;;;;;3.35;1.90;;;27.80;72.80;;;;;;5074127;28;20178;-86
2023/08/13 09:47:13;;;;;;;2.95;1.98;;;27.70;71.30;;;;;;5074480;28;20180;-86
2023/08/13 09:49:39;;;;;;;3.10;2.47;;;27.70;73.20;;;;;;5074600;28;20203;-87
2023/08/13 09:52:09;;;;;;;4.32;2.25;;;27.70;71.50;;;;;;5056098;28;20180;-88
2023/08/13 09:54:50;;;;;;;2.00;1.90;;;27.80;71.60;;;;;;5074572;28;20332;-87
2023/08/13 09:57:17;;;;;;;2.80;2.05;;;27.90;71.40;;;;;;5056429;28;20258;-88
2023/08/13 09:59:44;;;;;;;5.97;2.08;;;28.00;70.60;;;;;;5055966;28;20187;-88
2023/08/13 10:02:11;;;;;;;2.08;1.88;;;28.00;71.20;;;;;;5073454;28;20198;-87
2023/08/13 10:04:40;;;;;;;2.40;1.90;;;27.90;68.80;;;;;;5073878;28;20252;-87
2023/08/13 10:07:07;;;;;;;2.10;1.88;;;27.90;69.40;;;;;;5073188;28;20175;-89
2023/08/13 10:09:33;;;;;;;2.90;2.00;;;28.00;70.10;;;;;;5055629;28;20207;-88
2023/08/13 10:12:01;;;;;;;2.10;2.00;;;28.20;68.20;;;;;;5056303;28;20172;-89
2023/08/13 10:14:27;;;;;;;2.50;2.05;;;28.30;68.50;;;;;;5074048;28;20752;-87
2023/08/13 10:16:53;;;;;;;3.67;2.20;;;28.40;68.80;;;;;;5056573;28;20203;-88
2023/08/13 10:19:28;;;;;;;5.28;2.90;;;28.50;67.80;;;;;;5039877;28;20179;-87
2023/08/13 10:21:56;;;;;;;3.50;2.53;;;28.50;67.20;;;;;;5056245;28;20647;-89
2023/08/13 10:24:22;;;;;;;2.65;2.30;;;28.60;68.40;;;;;;5055879;28;20289;-88
2023/08/13 10:26:48;;;;;;;3.92;2.20;;;28.60;68.10;;;;;;5057025;28;20179;-89
2023/08/13 10:29:18;;;;;;;2.47;2.13;;;28.60;68.30;;;;;;5023187;28;20647;-87
2023/08/13 10:31:59;;;;;;;2.63;2.22;;;28.80;65.00;;;;;;5040894;28;20195;-89
2023/08/13 10:34:50;;;;;;;2.70;2.17;;;28.70;66.40;;;;;;5056683;28;20173;-87
2023/08/13 10:37:23;;;;;;;2.53;2.15;;;28.70;67.40;;;;;;5056265;28;20213;-88
2023/08/13 10:39:55;;;;;;;2.67;2.10;;;28.90;66.40;;;;;;5073839;28;20703;-91
2023/08/13 10:42:27;;;;;;;3.20;2.10;;;28.80;63.80;;;;;;5055313;28;20206;-88
2023/08/13 10:45:08;;;;;;;2.53;2.08;;;28.70;64.30;;;;;;5058051;28;20700;-88
2023/08/13 10:47:57;;;;;;;3.03;2.00;;;28.70;64.20;;;;;;5045364;28;20179;-89
2023/08/13 10:50:36;;;;;;;2.67;2.00;;;28.90;64.60;;;;;;5080219;28;20207;-91
2023/08/13 10:53:04;;;;;;;2.35;2.15;;;29.00;63.10;;;;;;5096263;28;20177;-91
2023/08/13 10:55:47;;;;;;;2.92;2.40;;;28.90;62.90;;;;;;5078842;28;20306;-91
2023/08/13 10:58:37;;;;;;;4.65;2.67;;;29.00;64.10;;;;;;5074730;28;20204;-87
2023/08/13 11:01:09;;;;;;;4.35;2.25;;;29.00;65.20;;;;;;5055921;28;20183;-88
2023/08/13 11:04:02;;;;;;;3.13;2.55;;;29.10;64.20;;;;;;5055162;28;20191;-88
2023/08/13 11:06:28;;;;;;;4.03;2.22;;;29.00;63.30;;;;;;5055569;28;20183;-87
2023/08/13 11:08:54;;;;;;;2.97;2.30;;;29.00;64.40;;;;;;5055852;28;20172;-87
2023/08/13 11:11:20;;;;;;;3.42;2.45;;;29.30;65.50;;;;;;5056179;28;20261;-88
2023/08/13 11:13:47;;;;;;;2.53;1.95;;;29.50;65.20;;;;;;5073945;28;20519;-88
2023/08/13 11:16:13;;;;;;;2.65;2.15;;;29.60;62.60;;;;;;5055156;28;20239;-87
2023/08/13 11:18:39;;;;;;;3.42;3.00;;;29.70;61.80;;;;;;5055669;28;20620;-88
2023/08/13 11:21:05;;;;;;;4.68;2.67;;;29.70;62.80;;;;;;5055659;28;20221;-88
2023/08/13 11:23:31;;;;;;;2.35;2.10;;;29.60;63.00;;;;;;5055818;28;20206;-87
2023/08/13 11:25:57;;;;;;;2.65;2.10;;;29.70;63.50;;;;;;5056100;28;20199;-87
2023/08/13 11:28:24;;;;;;;4.55;2.08;;;29.70;61.90;;;;;;5072998;28;20171;-86
2023/08/13 11:30:56;;;;;;;2.33;2.13;;;29.50;61.00;;;;;;5073440;28;20210;-89
2023/08/13 11:33:22;;;;;;;2.53;2.20;;;29.30;63.30;;;;;;5073200;28;20163;-85
2023/08/13 11:35:49;;;;;;;5.40;2.60;;;29.40;63.10;;;;;;5055761;28;20214;-89
2023/08/13 11:38:15;;;;;;;2.15;1.95;;;29.30;61.10;;;;;;5055569;28;20179;-86
2023/08/13 11:40:41;;;;;;;3.15;2.67;;;29.10;63.60;;;;;;5073698;28;20618;-86
2023/08/13 11:43:11;;;;;;;2.45;2.03;;;29.20;62.70;;;;;;5073154;28;20180;-89
2023/08/13 11:45:38;;;;;;;2.28;2.08;;;29.30;61.50;;;;;;5056179;28;20174;-84
2023/08/13 11:48:18;;;;;;;2.42;2.22;;;29.40;62.70;;;;;;5074631;28;20198;-86
2023/08/13 11:50:55;;;;;;;3.13;2.20;;;29.70;61.50;;;;;;5073666;28;20650;-87
2023/08/13 11:53:21;;;;;;;3.78;2.40;;;29.70;60.60;;;;;;5073167;28;20159;-87
2023/08/13 11:55:48;;;;;;;2.75;2.20;;;29.50;62.50;;;;;;5039774;28;20650;-86
2023/08/13 11:58:18;;;;;;;3.17;2.20;;;29.50;61.10;;;;;;5057291;28;20861;-87
2023/08/13 12:00:46;;;;;;;2.80;2.08;;;29.40;59.90;;;;;;5058972;28;20262;-87
2023/08/13 12:03:13;;;;;;;2.45;2.20;;;29.50;60.00;;;;;;5058506;28;20186;-87
2023/08/13 12:05:39;;;;;;;2.22;2.03;;;29.40;59.80;;;;;;5076792;28;20639;-87
2023/08/13 12:08:09;;;;;;;2.47;2.28;;;29.50;60.90;;;;;;5058463;28;20641;-88
2023/08/13 12:10:35;;;;;;;2.13;1.90;;;29.60;61.60;;;;;;5069999;28;20226;-87
2023/08/13 12:13:01;;;;;;;2.90;2.20;;;29.80;59.70;;;;;;5079934;28;20194;-88
2023/08/13 12:15:29;;;;;;;2.35;2.08;;;29.70;58.90;;;;;;5069494;28;20232;-87
2023/08/13 12:17:56;;;;;;;3.55;2.13;;;29.50;59.10;;;;;;5077119;28;20167;-87
2023/08/13 12:20:23;;;;;;;2.25;1.92;;;29.50;58.10;;;;;;5076848;28;20179;-86
2023/08/13 12:22:49;;;;;;;2.70;2.10;;;29.60;58.50;;;;;;5041741;28;20636;-88
2023/08/13 12:25:15;;;;;;;2.45;2.00;;;29.70;58.40;;;;;;5059187;28;20516;-88
2023/08/13 12:27:44;;;;;;;2.40;2.20;;;29.50;59.40;;;;;;5041694;28;20186;-88
2023/08/13 12:30:10;;;;;;;2.17;1.95;;;29.50;60.20;;;;;;5076240;28;20625;-87
2023/08/13 12:32:37;;;;;;;2.95;2.30;;;29.80;59.80;;;;;;5076054;28;20202;-88
2023/08/13 12:35:02;;;;;;;3.90;1.73;;;29.90;59.00;;;;;;5059344;28;20195;-88
2023/08/13 12:37:28;;;;;;;2.35;2.15;;;30.10;59.80;;;;;;5041644;28;20183;-87
2023/08/13 12:39:54;;;;;;;4.30;2.10;;;30.10;58.30;;;;;;5075899;28;20228;-85
2023/08/13 12:42:20;;;;;;;2.55;2.10;;;30.10;59.30;;;;;;5041001;28;20218;-85
2023/08/13 12:44:46;;;;;;;3.95;2.15;;;30.20;59.30;;;;;;5040653;28;20183;-85